Skip to main content.
 TIME   TEMPERATURE   WINDSPEED   DIRECTION   HUMIDITY   BAROMETER   RAINFALL 
11:05 21.2°C (70.2°F) 0.0 kmh (0.0 mph) NW 72% 1016.0hPa (30.00 inHg) 0.0mm (0.00 in.)
10:05 21.3°C (70.3 °F) 3.7 kmh (2.3 mph) NNW 72% 1016.0hPa (30.00 inHg) 0.0mm (0.00 in.)
9:05 21.3°C (70.3 °F) 0.0 kmh (0.0 mph) WNW 71% 1016.0hPa (30.00 inHg) 0.0mm (0.00 in.)
8:05 21.4°C (70.5 °F) 0.0 kmh (0.0 mph) NNW 71% 1016.0hPa (30.00 inHg) 0.0mm (0.00 in.)
7:05 21.6°C (70.9 °F) 16.7 kmh (10.4 mph) ENE 70% 1016.0hPa (30.00 inHg) 0.0mm (0.00 in.)
6:05 22.6°C (72.7 °F) 14.8 kmh (9.2 mph) NNE 69% 1016.0hPa (30.00 inHg) 0.0mm (0.00 in.)
5:05 24.0°C (75.2 °F) 14.8 kmh (9.2 mph) NNW 70% 1016.0hPa (30.00 inHg) 0.0mm (0.00 in.)
4:05 24.1°C (75.4 °F) 0.0 kmh (0.0 mph) NNW 70% 1017.0hPa (30.03 inHg) 0.0mm (0.00 in.)
3:05 24.3°C (75.7 °F) 5.6 kmh (3.5 mph) NNW 70% 1017.0hPa (30.03 inHg) 0.0mm (0.00 in.)
2:05 24.3°C (75.7 °F) 3.7 kmh (2.3 mph) N 72% 1018.0hPa (30.06 inHg) 0.0mm (0.00 in.)
1:05 24.0°C (75.2 °F) 13.0 kmh (8.1 mph) NE 73% 1018.0hPa (30.06 inHg) 0.0mm (0.00 in.)
12:05 23.7°C (74.7 °F) 11.1 kmh (6.9 mph) NNW 75% 1019.0hPa (30.09 inHg) 0.0mm (0.00 in.)
11:05 23.5°C (74.3 °F) 14.8 kmh (9.2 mph) NE 76% 1019.0hPa (30.09 inHg) 0.0mm (0.00 in.)
10:05 23.0°C (73.4 °F) 13.0 kmh (8.1 mph) NW 77% 1019.0hPa (30.09 inHg) 0.0mm (0.00 in.)
9:05 22.6°C (72.7 °F) 3.7 kmh (2.3 mph) N 77% 1019.0hPa (30.09 inHg) 0.0mm (0.00 in.)
8:05 20.6°C (69.1 °F) 0.0 kmh (0.0 mph) NNW 77% 1018.0hPa (30.06 inHg) 0.0mm (0.00 in.)
7:05 20.6°C (69.1 °F) 0.0 kmh (0.0 mph) NNW 77% 1019.0hPa (30.09 inHg) 0.0mm (0.00 in.)
6:05 20.5°C (68.9 °F) 0.0 kmh (0.0 mph) NNW 77% 1018.0hPa (30.06 inHg) 0.0mm (0.00 in.)
5:05 20.6°C (69.1 °F) 0.0 kmh (0.0 mph) NNW 76% 1018.0hPa (30.06 inHg) 0.0mm (0.00 in.)
4:05 20.6°C (69.1 °F) 0.0 kmh (0.0 mph) N 76% 1018.0hPa (30.06 inHg) 0.0mm (0.00 in.)
3:05 20.8°C (69.4 °F) 0.0 kmh (0.0 mph) N 75% 1019.0hPa (30.09 inHg) 0.0mm (0.00 in.)
2:05 20.9°C (69.6 °F) 0.0 kmh (0.0 mph) N 75% 1019.0hPa (30.09 inHg) 0.0mm (0.00 in.)
1:05 20.9°C (69.6 °F) 0.0 kmh (0.0 mph) ENE 75% 1019.0hPa (30.09 inHg) 0.0mm (0.00 in.)
12:05 21.0°C (69.8 °F) 0.0 kmh (0.0 mph) ENE 74% 1019.0hPa (30.09 inHg) 0.0mm (0.00 in.)